Time;durP1;ratioP1;P1;durP2;ratioP2;P2;SDS_P1;SDS_P2;PMS_P1;PMS_P2;Temp;Humidity;BMP_temperature;BMP_pressure;BME280_temperature;BME280_humidity;BME280_pressure;Samples;Min_cycle;Max_cycle;Signal;HPM_P1;HPM_P2
2021/04/30 00:00:27;;;;;;;5.67;4.27;;;4.00;99.90;;;5.14;100.00;97649.25;5064247;28;20458;-80
2021/04/30 00:02:55;;;;;;;6.83;4.90;;;4.20;99.90;;;5.05;100.00;97648.44;5060476;28;20489;-80
2021/04/30 00:05:24;;;;;;;7.40;5.47;;;4.00;99.90;;;4.84;100.00;97648.91;5049138;28;20524;-80
2021/04/30 00:07:51;;;;;;;6.70;5.53;;;3.80;99.90;;;4.78;100.00;97652.16;5051576;28;20466;-80
2021/04/30 00:10:19;;;;;;;7.00;5.00;;;3.80;99.90;;;4.93;100.00;97647.13;5056749;28;20576;-80
2021/04/30 00:12:47;;;;;;;8.27;5.57;;;4.00;99.90;;;4.83;100.00;97651.66;5056935;28;20473;-80
2021/04/30 00:15:16;;;;;;;11.80;5.60;;;3.90;99.90;;;4.99;100.00;97649.09;5059613;28;20497;-80
2021/04/30 00:17:44;;;;;;;5.93;4.63;;;4.00;99.90;;;5.09;100.00;97660.09;5057515;28;20462;-81
2021/04/30 00:20:15;;;;;;;6.97;4.60;;;4.10;99.90;;;5.26;100.00;97653.94;5052510;28;20881;-80
2021/04/30 00:22:42;;;;;;;9.23;5.03;;;4.30;99.90;;;5.27;100.00;97655.56;5058579;28;20956;-80
2021/04/30 00:25:11;;;;;;;6.67;5.17;;;4.30;99.90;;;5.21;100.00;97653.59;5062787;28;20853;-80
2021/04/30 00:27:39;;;;;;;6.80;4.70;;;4.30;99.90;;;5.15;100.00;97662.03;5053921;28;20460;-80
2021/04/30 00:30:09;;;;;;;6.70;5.03;;;4.20;99.90;;;5.13;100.00;97665.78;5058349;28;20471;-80
2021/04/30 00:32:38;;;;;;;8.40;5.17;;;4.20;99.90;;;5.04;100.00;97667.53;5052899;28;20474;-80
2021/04/30 00:35:07;;;;;;;8.07;4.83;;;4.10;99.90;;;4.76;100.00;97673.97;5056286;28;20880;-80
2021/04/30 00:37:38;;;;;;;8.40;5.77;;;3.70;99.90;;;4.75;100.00;97674.97;5054169;28;20459;-80
2021/04/30 00:40:09;;;;;;;8.40;5.10;;;3.80;99.90;;;4.84;100.00;97667.03;5059311;28;20467;-80
2021/04/30 00:42:37;;;;;;;7.43;5.10;;;3.90;99.90;;;4.80;100.00;97667.53;5060889;28;20447;-80
2021/04/30 00:45:08;;;;;;;8.33;5.60;;;3.90;99.90;;;4.65;100.00;97676.91;5059834;28;20462;-80
2021/04/30 00:47:37;;;;;;;9.03;5.27;;;3.70;99.90;;;4.33;100.00;97675.84;5059308;28;20512;-80
2021/04/30 00:50:09;;;;;;;7.83;5.40;;;3.40;99.90;;;4.39;100.00;97685.56;5059112;28;20471;-80
2021/04/30 00:52:38;;;;;;;9.77;6.13;;;3.40;99.90;;;4.66;100.00;97684.50;5058655;28;20871;-80
2021/04/30 00:55:10;;;;;;;9.37;5.10;;;3.80;99.90;;;4.70;100.00;97684.97;5055765;28;20499;-80
2021/04/30 00:57:40;;;;;;;9.03;5.73;;;3.70;99.90;;;4.72;100.00;97685.66;5054867;28;20538;-80
2021/04/30 01:00:11;;;;;;;11.77;6.13;;;3.80;99.90;;;4.65;100.00;97682.88;5061464;28;20962;-80
2021/04/30 01:02:41;;;;;;;14.33;5.70;;;3.70;99.90;;;4.52;100.00;97683.34;5063172;28;20476;-80
2021/04/30 01:05:11;;;;;;;8.93;6.77;;;3.50;99.90;;;4.32;100.00;97674.22;5057842;28;20460;-80
2021/04/30 01:07:40;;;;;;;8.87;5.53;;;3.30;99.90;;;3.89;100.00;97682.09;5059996;28;20708;-80
2021/04/30 01:10:09;;;;;;;9.90;6.33;;;2.90;99.90;;;3.89;100.00;97682.09;5058719;28;20457;-80
2021/04/30 01:12:37;;;;;;;11.90;6.00;;;2.90;99.90;;;3.97;100.00;97682.16;5056913;28;20464;-80
2021/04/30 01:15:07;;;;;;;11.23;6.03;;;3.00;99.90;;;4.01;100.00;97683.47;5063067;28;20479;-80
2021/04/30 01:17:35;;;;;;;9.43;6.27;;;3.00;99.90;;;3.73;100.00;97682.84;5061765;28;20470;-80
2021/04/30 01:20:06;;;;;;;6.67;5.43;;;2.80;99.90;;;3.74;100.00;97686.25;5059020;28;20464;-80
2021/04/30 01:22:37;;;;;;;8.90;6.03;;;2.70;99.90;;;3.91;100.00;97686.19;5058878;28;20965;-80
2021/04/30 01:25:08;;;;;;;9.90;6.60;;;2.90;99.90;;;3.93;100.00;97691.19;5057261;28;20473;-80
2021/04/30 01:27:36;;;;;;;9.60;5.97;;;3.00;99.90;;;3.90;100.00;97704.44;5065485;28;20852;-80
2021/04/30 01:30:08;;;;;;;11.20;6.10;;;2.90;99.90;;;3.73;100.00;97700.94;5055274;28;20855;-80
2021/04/30 01:32:35;;;;;;;6.60;5.60;;;2.70;99.90;;;3.63;100.00;97704.59;5064146;28;20503;-80
2021/04/30 01:35:04;;;;;;;8.30;6.00;;;2.60;99.90;;;3.71;100.00;97705.47;5059139;28;20485;-80
2021/04/30 01:37:32;;;;;;;13.40;6.27;;;2.80;99.90;;;3.55;100.00;97705.34;5060810;28;20511;-80
2021/04/30 01:40:00;;;;;;;15.97;5.73;;;2.60;99.90;;;3.77;100.00;97711.78;5056376;28;20513;-80
2021/04/30 01:42:28;;;;;;;8.67;6.40;;;2.90;99.90;;;3.79;100.00;97704.69;5064178;28;21026;-80
2021/04/30 01:44:55;;;;;;;7.57;5.60;;;2.90;99.90;;;3.55;100.00;97711.31;5065803;28;20464;-80
2021/04/30 01:47:23;;;;;;;7.73;6.17;;;2.60;99.90;;;3.47;100.00;97725.97;5057401;28;20498;-80
2021/04/30 01:49:51;;;;;;;6.80;5.37;;;2.50;99.90;;;3.54;100.00;97719.22;5064118;28;20955;-81
2021/04/30 01:52:18;;;;;;;8.83;5.50;;;2.60;99.90;;;3.57;100.00;97724.13;5059281;28;20866;-80
2021/04/30 01:54:49;;;;;;;7.90;5.77;;;2.60;99.90;;;3.66;100.00;97722.38;5057506;28;20954;-80
2021/04/30 01:57:18;;;;;;;9.13;5.97;;;2.70;99.90;;;3.60;100.00;97718.63;5055597;28;20470;-80
2021/04/30 01:59:45;;;;;;;10.37;6.40;;;2.60;99.90;;;3.34;100.00;97720.38;5057391;28;20490;-80
2021/04/30 02:02:13;;;;;;;8.30;5.60;;;2.30;99.90;;;3.43;100.00;97722.06;5059116;28;20520;-80
2021/04/30 02:04:40;;;;;;;6.57;4.90;;;2.40;99.90;;;3.44;100.00;97729.66;5051688;28;20483;-80
2021/04/30 02:07:08;;;;;;;7.90;6.03;;;2.50;99.90;;;3.33;100.00;97727.31;5058300;28;20453;-80
2021/04/30 02:09:35;;;;;;;9.57;6.60;;;2.30;99.90;;;3.43;100.00;97728.06;5055290;28;20468;-80
2021/04/30 02:12:03;;;;;;;8.47;6.37;;;2.50;99.90;;;3.46;100.00;97732.09;5061987;28;20467;-80
2021/04/30 02:14:32;;;;;;;9.57;7.27;;;2.50;99.90;;;3.21;100.00;97717.38;5061342;28;20469;-80
2021/04/30 02:17:00;;;;;;;8.83;6.67;;;2.20;99.90;;;3.16;100.00;97722.19;5059444;28;20512;-80
2021/04/30 02:19:27;;;;;;;10.20;5.97;;;2.20;99.90;;;3.03;100.00;97717.38;5060580;28;20544;-80
2021/04/30 02:21:55;;;;;;;12.20;6.20;;;2.00;99.90;;;3.23;100.00;97715.47;5056374;28;20469;-80
2021/04/30 02:24:22;;;;;;;8.57;6.17;;;2.30;99.90;;;3.32;100.00;97715.38;5051082;28;20565;-80
2021/04/30 02:26:50;;;;;;;10.00;5.90;;;2.40;99.90;;;3.17;100.00;97711.69;5058218;28;20460;-80
2021/04/30 02:29:17;;;;;;;12.70;7.10;;;2.20;99.90;;;3.19;100.00;97707.19;5057218;28;20468;-80
2021/04/30 02:31:45;;;;;;;21.93;7.00;;;2.20;99.90;;;3.32;100.00;97704.22;5058813;28;20488;-80
2021/04/30 02:34:13;;;;;;;11.70;7.60;;;2.30;99.90;;;3.05;100.00;97703.34;5053373;28;20548;-80
2021/04/30 02:36:40;;;;;;;11.40;6.90;;;2.10;99.90;;;2.86;100.00;97698.34;5055522;28;20552;-80
2021/04/30 02:39:08;;;;;;;10.50;7.70;;;1.90;99.90;;;3.13;100.00;97699.19;5052612;28;20456;-80
2021/04/30 02:41:36;;;;;;;7.50;6.20;;;2.20;99.90;;;3.03;100.00;97697.53;5063237;28;20971;-80
2021/04/30 02:44:04;;;;;;;8.70;6.57;;;2.10;99.90;;;2.75;100.00;97708.06;5057394;28;20483;-80
2021/04/30 02:46:31;;;;;;;10.80;6.90;;;1.80;99.90;;;2.74;100.00;97717.56;5057413;28;20462;-80
2021/04/30 02:49:03;;;;;;;9.53;6.80;;;1.80;99.90;;;2.71;100.00;97717.06;5053630;28;20827;-80
2021/04/30 02:51:30;;;;;;;9.10;6.50;;;1.70;99.90;;;2.68;100.00;97717.34;5051718;28;20469;-80
2021/04/30 02:53:58;;;;;;;11.00;7.87;;;1.70;99.90;;;2.72;100.00;97716.09;5054916;28;20911;-80
2021/04/30 02:56:25;;;;;;;9.60;7.10;;;1.80;99.90;;;2.78;100.00;97710.34;5058411;28;20533;-80
2021/04/30 02:58:55;;;;;;;14.00;7.00;;;1.80;99.90;;;2.74;100.00;97715.00;5054535;28;20883;-81
2021/04/30 03:01:23;;;;;;;13.60;7.33;;;1.80;99.90;;;2.77;100.00;97708.75;5062919;28;20472;-80
2021/04/30 03:03:50;;;;;;;10.83;7.17;;;1.80;99.90;;;2.76;100.00;97702.75;5058011;28;20463;-81
2021/04/30 03:06:19;;;;;;;10.57;7.77;;;1.80;99.90;;;2.65;100.00;97691.81;5054991;28;20526;-80
2021/04/30 03:08:52;;;;;;;13.37;7.00;;;1.70;99.90;;;2.67;100.00;97688.16;5053283;28;20471;-81
2021/04/30 03:11:20;;;;;;;10.10;6.20;;;1.70;99.90;;;2.82;100.00;97686.69;5055066;28;20945;-80
2021/04/30 03:13:49;;;;;;;10.60;7.50;;;1.90;99.90;;;2.77;100.00;97688.09;5057387;28;20476;-80
2021/04/30 03:16:17;;;;;;;11.13;7.50;;;1.80;99.90;;;2.83;100.00;97687.50;5060182;28;20499;-80
2021/04/30 03:18:45;;;;;;;15.47;7.60;;;1.90;99.90;;;2.84;100.00;97694.28;5059176;28;20463;-80
2021/04/30 03:21:12;;;;;;;11.17;6.80;;;1.90;99.90;;;2.98;100.00;97691.19;5058016;28;20465;-80
2021/04/30 03:23:40;;;;;;;10.20;6.93;;;2.00;99.90;;;2.87;100.00;97694.81;5063254;28;20517;-81
2021/04/30 03:26:08;;;;;;;9.57;7.37;;;1.90;99.90;;;2.92;100.00;97697.75;5050701;28;21064;-80
2021/04/30 03:28:36;;;;;;;11.93;7.60;;;2.00;99.90;;;2.92;100.00;97696.94;5059208;28;20524;-80
2021/04/30 03:31:03;;;;;;;17.03;7.57;;;1.90;99.90;;;2.99;100.00;97696.19;5053976;28;20466;-81
2021/04/30 03:33:31;;;;;;;11.43;6.87;;;2.00;99.90;;;3.04;100.00;97695.75;5054819;28;20482;-80
2021/04/30 03:35:58;;;;;;;11.83;7.80;;;2.10;99.90;;;3.04;100.00;97706.09;5053244;28;20522;-81
2021/04/30 03:38:26;;;;;;;12.00;7.87;;;2.10;99.90;;;2.81;100.00;97710.06;5059942;28;20873;-80
2021/04/30 03:40:54;;;;;;;9.70;7.17;;;1.80;99.90;;;2.51;100.00;97714.59;5054143;28;20459;-83
2021/04/30 03:43:22;;;;;;;12.83;7.57;;;1.50;99.90;;;2.58;100.00;97707.09;5052211;28;20996;-81
2021/04/30 03:45:50;;;;;;;9.80;7.27;;;1.60;99.90;;;2.70;100.00;97707.69;5054987;28;20521;-81
2021/04/30 03:48:18;;;;;;;9.93;6.93;;;1.80;99.90;;;2.56;100.00;97710.78;5050077;28;20570;-81
2021/04/30 03:50:46;;;;;;;10.80;7.20;;;1.60;99.90;;;2.39;100.00;97710.63;5048083;28;20526;-82
2021/04/30 03:53:14;;;;;;;15.40;8.00;;;1.40;99.90;;;2.52;100.00;97711.06;5053034;28;20953;-82
2021/04/30 03:55:42;;;;;;;9.47;7.40;;;1.60;99.90;;;2.48;100.00;97707.16;5052979;28;20494;-82
2021/04/30 03:58:10;;;;;;;9.93;6.27;;;1.50;99.90;;;2.61;100.00;97705.97;5054908;28;20453;-81
2021/04/30 04:00:37;;;;;;;12.10;7.30;;;1.60;99.90;;;2.67;100.00;97708.81;5060400;28;20436;-81
2021/04/30 04:03:05;;;;;;;11.83;7.60;;;1.80;99.90;;;2.70;100.00;97712.88;5050469;28;20536;-82
2021/04/30 04:05:32;;;;;;;10.73;6.80;;;1.80;99.90;;;2.68;100.00;97704.44;5052362;28;20452;-81
2021/04/30 04:08:00;;;;;;;14.80;7.80;;;1.70;99.90;;;2.49;100.00;97702.81;5057708;28;21248;-81
2021/04/30 04:10:28;;;;;;;9.87;7.30;;;1.50;99.90;;;2.26;100.00;97707.53;5059266;28;20436;-81
2021/04/30 04:12:55;;;;;;;9.30;6.70;;;1.30;99.90;;;2.20;100.00;97709.88;5046741;28;20502;-80
2021/04/30 04:15:24;;;;;;;10.50;7.17;;;1.20;99.90;;;2.20;100.00;97712.47;5048571;28;20594;-80
2021/04/30 04:17:51;;;;;;;11.03;7.17;;;1.20;99.90;;;2.14;100.00;97711.28;5054339;28;20480;-79
2021/04/30 04:20:19;;;;;;;11.20;7.43;;;1.20;99.90;;;2.10;100.00;97720.25;5063085;28;20450;-80
2021/04/30 04:22:46;;;;;;;12.83;7.70;;;1.10;99.90;;;2.10;100.00;97717.66;5060966;28;20521;-79
2021/04/30 04:25:14;;;;;;;14.40;8.03;;;1.20;99.90;;;2.18;100.00;97717.78;5064911;28;20437;-79
2021/04/30 04:27:41;;;;;;;11.93;7.50;;;1.20;99.90;;;2.23;100.00;97718.13;5057855;28;21025;-79
2021/04/30 04:30:12;;;;;;;26.10;14.40;;;1.30;99.90;;;2.45;100.00;97714.38;5057136;28;20447;-79
2021/04/30 04:32:42;;;;;;;13.90;8.83;;;1.50;99.90;;;2.45;100.00;97710.03;5064414;28;20455;-79
2021/04/30 04:35:10;;;;;;;13.20;8.13;;;1.50;99.90;;;2.53;100.00;97707.50;5059971;28;20443;-78
2021/04/30 04:37:38;;;;;;;11.17;8.10;;;1.60;99.90;;;2.45;100.00;97704.88;5059582;28;20493;-78
2021/04/30 04:40:07;;;;;;;12.10;8.30;;;1.50;99.90;;;2.43;100.00;97716.28;5063741;28;20505;-78
2021/04/30 04:42:34;;;;;;;9.53;7.23;;;1.40;99.90;;;2.32;100.00;97716.47;5054441;28;20446;-78
2021/04/30 04:45:02;;;;;;;11.97;8.07;;;1.30;99.90;;;2.44;100.00;97712.75;5069642;28;20444;-78
2021/04/30 04:47:30;;;;;;;15.80;9.00;;;1.50;99.90;;;2.45;100.00;97710.03;5068324;28;20445;-78
2021/04/30 04:49:58;;;;;;;14.47;9.43;;;1.40;99.90;;;2.47;100.00;97708.09;5072951;28;20479;-78
2021/04/30 04:52:26;;;;;;;11.53;8.40;;;1.50;99.90;;;2.35;100.00;97718.78;5072580;28;20433;-78
2021/04/30 04:54:53;;;;;;;14.80;9.23;;;1.30;99.90;;;2.34;100.00;97723.13;5064055;28;20447;-78
2021/04/30 04:57:21;;;;;;;15.73;8.87;;;1.40;99.90;;;2.28;100.00;97723.69;5069635;28;20825;-78
2021/04/30 04:59:48;;;;;;;20.33;9.60;;;1.20;99.90;;;2.36;100.00;97723.78;5065942;28;20443;-78
2021/04/30 05:02:16;;;;;;;21.80;10.40;;;1.40;99.90;;;2.52;100.00;97728.31;5062816;28;20452;-78
2021/04/30 05:04:45;;;;;;;15.60;10.27;;;1.50;99.90;;;2.65;100.00;97722.81;5058037;28;20441;-78
2021/04/30 05:07:13;;;;;;;16.07;9.23;;;1.70;99.90;;;2.61;100.00;97724.03;5068960;28;20496;-78
2021/04/30 05:09:41;;;;;;;14.60;9.10;;;1.60;99.90;;;2.64;100.00;97723.78;5070672;28;20846;-78
2021/04/30 05:12:09;;;;;;;14.00;9.17;;;1.60;99.90;;;2.79;100.00;97714.56;5068013;28;20451;-78
2021/04/30 05:14:37;;;;;;;12.47;9.87;;;1.80;99.90;;;2.91;100.00;97703.88;5068833;28;20446;-78
2021/04/30 05:17:06;;;;;;;16.03;9.70;;;2.10;99.90;;;3.08;100.00;97706.59;5068966;28;20549;-78
2021/04/30 05:19:34;;;;;;;16.03;10.90;;;2.20;99.90;;;3.11;100.00;97707.13;5067275;28;20487;-78
2021/04/30 05:22:06;;;;;;;15.83;10.17;;;2.30;99.90;;;3.17;100.00;97703.13;5068477;28;20452;-79
2021/04/30 05:24:36;;;;;;;14.27;10.60;;;2.30;99.90;;;3.14;100.00;97711.16;5069049;28;20510;-78
2021/04/30 05:27:06;;;;;;;19.33;9.63;;;2.20;99.90;;;3.15;100.00;97713.63;5069274;28;20440;-78
2021/04/30 05:29:35;;;;;;;16.57;9.60;;;2.20;99.90;;;3.26;100.00;97705.63;5065848;28;20922;-78
2021/04/30 05:32:02;;;;;;;14.30;9.40;;;2.30;99.90;;;3.30;100.00;97709.53;5068315;28;20891;-78
2021/04/30 05:34:35;;;;;;;20.57;10.17;;;2.40;99.90;;;3.42;100.00;97710.91;5063339;28;20441;-78
2021/04/30 05:37:03;;;;;;;15.57;10.37;;;2.50;99.90;;;3.60;100.00;97703.13;5069904;28;20565;-78
2021/04/30 05:39:31;;;;;;;22.80;12.00;;;2.70;99.90;;;3.69;100.00;97703.97;5068589;28;20445;-79
2021/04/30 05:42:00;;;;;;;17.23;11.37;;;2.80;99.90;;;3.76;100.00;97707.56;5063261;28;20449;-79
2021/04/30 05:44:28;;;;;;;17.10;10.50;;;3.00;99.90;;;3.89;100.00;97698.44;5067961;28;20484;-78
2021/04/30 05:46:56;;;;;;;17.10;10.73;;;3.10;99.90;;;3.96;100.00;97696.03;5070100;28;20445;-78
2021/04/30 05:49:24;;;;;;;15.13;10.40;;;3.20;99.90;;;4.05;100.00;97708.06;5067639;28;20515;-78
2021/04/30 05:51:51;;;;;;;15.40;9.80;;;3.30;99.90;;;4.04;100.00;97711.63;5070193;28;20449;-78
2021/04/30 05:54:19;;;;;;;17.47;9.80;;;3.30;99.90;;;4.12;100.00;97714.25;5067637;28;20448;-78
2021/04/30 05:56:46;;;;;;;15.10;10.67;;;3.30;99.90;;;4.21;100.00;97718.47;5068414;28;20476;-78
2021/04/30 05:59:15;;;;;;;17.37;9.53;;;3.50;99.90;;;4.19;100.00;97710.06;5069905;28;20445;-79
2021/04/30 06:01:42;;;;;;;18.73;10.80;;;3.40;99.90;;;4.23;100.00;97711.41;5069721;28;20495;-78
2021/04/30 06:04:10;;;;;;;16.47;10.20;;;3.40;99.90;;;4.21;100.00;97705.53;5067202;28;20441;-78
2021/04/30 06:06:37;;;;;;;18.90;11.40;;;3.40;99.90;;;4.26;100.00;97705.91;5058689;28;21314;-79
2021/04/30 06:09:06;;;;;;;16.90;10.67;;;3.40;99.90;;;4.35;100.00;97710.13;5065319;28;20450;-79
2021/04/30 06:11:33;;;;;;;13.20;9.47;;;3.50;99.90;;;4.33;100.00;97701.72;5060908;28;20461;-78
2021/04/30 06:14:00;;;;;;;19.83;10.40;;;3.50;99.90;;;4.34;100.00;97705.13;5068447;28;20884;-78
2021/04/30 06:16:29;;;;;;;13.50;9.47;;;3.50;99.90;;;4.41;100.00;97714.69;5070342;28;20551;-78
2021/04/30 06:18:56;;;;;;;15.80;10.23;;;3.50;99.90;;;4.46;100.00;97717.63;5067405;28;20499;-78
2021/04/30 06:21:25;;;;;;;16.40;10.57;;;3.50;99.90;;;4.54;100.00;97722.84;5070241;28;20937;-78
2021/04/30 06:23:52;;;;;;;13.33;9.80;;;3.60;99.90;;;4.57;100.00;97725.09;5068414;28;20438;-78
2021/04/30 06:26:20;;;;;;;16.37;10.60;;;3.70;99.90;;;4.60;100.00;97717.97;5058717;28;20442;-77
2021/04/30 06:28:47;;;;;;;15.47;11.03;;;3.80;99.90;;;4.58;100.00;97724.13;5066272;28;20452;-79
2021/04/30 06:31:15;;;;;;;13.87;9.87;;;3.70;99.90;;;4.70;100.00;97721.25;5065968;28;20802;-79
2021/04/30 06:33:44;;;;;;;15.50;10.00;;;3.80;99.90;;;4.78;100.00;97721.28;5068827;28;20565;-78
2021/04/30 06:36:11;;;;;;;22.53;10.60;;;4.00;99.90;;;4.85;100.00;97722.25;5066632;28;20487;-79
2021/04/30 06:38:39;;;;;;;15.40;10.17;;;4.00;99.90;;;4.87;100.00;97728.06;5060119;28;20442;-78
2021/04/30 06:41:07;;;;;;;16.47;10.60;;;4.00;99.90;;;4.94;100.00;97729.06;5068165;28;20440;-78
2021/04/30 06:43:34;;;;;;;20.60;10.60;;;4.10;99.90;;;4.96;100.00;97727.91;5066265;28;20471;-79
2021/04/30 06:46:02;;;;;;;14.83;10.07;;;4.10;99.90;;;5.00;100.00;97726.63;5069255;28;20935;-79
2021/04/30 06:48:29;;;;;;;18.10;9.97;;;4.10;99.90;;;5.00;100.00;97726.63;5071260;28;20450;-78
2021/04/30 06:50:58;;;;;;;15.53;10.50;;;4.10;99.90;;;5.01;100.00;97733.44;5063466;28;20450;-78
2021/04/30 06:53:25;;;;;;;16.20;11.10;;;4.10;99.90;;;5.12;100.00;97729.75;5068864;28;20469;-78
2021/04/30 06:55:53;;;;;;;15.60;10.50;;;4.30;99.90;;;5.20;100.00;97737.53;5068548;28;20958;-78
2021/04/30 06:58:20;;;;;;;17.17;10.67;;;4.40;99.90;;;5.27;100.00;97738.50;5066766;28;20447;-78
2021/04/30 07:00:48;;;;;;;14.43;10.13;;;4.50;99.90;;;5.25;100.00;97739.63;5064577;28;20499;-78
2021/04/30 07:03:15;;;;;;;13.53;9.60;;;4.40;99.90;;;5.28;100.00;97740.09;5063174;28;20497;-78
2021/04/30 07:05:59;;;;;;;14.47;9.87;;;4.40;99.90;;;5.39;100.00;97742.38;5061891;28;20457;-78
2021/04/30 07:08:26;;;;;;;18.53;11.37;;;4.50;99.90;;;5.45;100.00;97746.91;5070161;28;20819;-78
2021/04/30 07:10:53;;;;;;;18.30;11.03;;;4.60;99.90;;;5.54;100.00;97745.16;5064524;28;20442;-78
2021/04/30 07:13:21;;;;;;;17.70;10.67;;;4.70;99.90;;;5.59;100.00;97748.84;5064564;28;20525;-78
2021/04/30 07:15:48;;;;;;;21.37;11.73;;;4.70;99.90;;;5.61;100.00;97746.13;5068047;28;20447;-78
2021/04/30 07:18:16;;;;;;;16.23;11.13;;;4.70;99.90;;;5.71;100.00;97751.13;5065311;28;20509;-78
2021/04/30 07:20:45;;;;;;;16.20;10.97;;;4.90;99.90;;;5.81;100.00;97749.16;5069202;28;20455;-78
2021/04/30 07:23:14;;;;;;;16.00;11.20;;;5.00;99.90;;;5.88;100.00;97747.56;5069598;28;20439;-78
2021/04/30 07:25:41;;;;;;;17.87;11.83;;;5.10;99.90;;;5.96;100.00;97739.78;5069095;28;20940;-78
2021/04/30 07:28:09;;;;;;;24.70;11.57;;;5.20;99.90;;;6.00;100.00;97735.88;5061367;28;20444;-78
2021/04/30 07:30:37;;;;;;;25.27;14.80;;;5.20;99.90;;;6.08;100.00;97744.44;5068216;28;20437;-77
2021/04/30 07:33:06;;;;;;;23.93;12.80;;;5.30;99.90;;;6.10;100.00;97740.88;5065821;28;20460;-78
2021/04/30 07:35:39;;;;;;;24.60;12.30;;;5.30;99.90;;;6.08;100.00;97743.63;5065642;28;20464;-78
2021/04/30 07:38:07;;;;;;;17.50;12.27;;;5.20;99.90;;;6.16;100.00;97730.63;5067336;28;20497;-78
2021/04/30 07:40:39;;;;;;;16.00;10.83;;;5.40;99.90;;;6.25;100.00;97729.63;5055174;28;20484;-78
2021/04/30 07:43:07;;;;;;;19.67;12.27;;;5.60;99.90;;;6.30;100.00;97726.53;5064973;28;20473;-78
2021/04/30 07:45:37;;;;;;;21.87;11.20;;;5.60;99.90;;;6.34;100.00;97728.63;5066065;28;20440;-78
2021/04/30 07:48:09;;;;;;;20.00;11.10;;;5.70;99.90;;;6.39;100.00;97733.31;5067618;28;20501;-78
2021/04/30 07:50:39;;;;;;;17.50;10.40;;;5.70;99.90;;;6.44;100.00;97731.84;5069761;28;20527;-77
2021/04/30 07:53:08;;;;;;;24.83;11.30;;;5.80;99.90;;;6.47;100.00;97738.47;5070000;28;20937;-79
2021/04/30 07:55:36;;;;;;;22.07;12.10;;;5.80;99.90;;;6.48;100.00;97743.50;5071445;28;20938;-78
2021/04/30 07:58:04;;;;;;;20.67;11.07;;;5.90;99.90;;;6.50;100.00;97736.34;5065949;28;20499;-79
2021/04/30 08:00:32;;;;;;;23.20;12.70;;;5.90;99.90;;;6.53;100.00;97730.81;5070256;28;20454;-78
2021/04/30 08:02:59;;;;;;;21.07;11.00;;;6.00;99.90;;;6.57;100.00;97728.69;5069974;28;20437;-78
2021/04/30 08:05:27;;;;;;;17.60;12.03;;;6.00;99.90;;;6.58;100.00;97740.72;5066656;28;20458;-78
2021/04/30 08:07:55;;;;;;;21.50;10.97;;;6.00;99.90;;;6.61;100.00;97744.75;5072122;28;20438;-78
2021/04/30 08:10:23;;;;;;;18.37;12.57;;;6.10;99.90;;;6.63;100.00;97742.81;5072908;28;20455;-78
2021/04/30 08:12:51;;;;;;;16.00;10.00;;;6.10;99.90;;;6.66;100.00;97737.28;5069719;28;20532;-78
2021/04/30 08:15:18;;;;;;;15.03;9.97;;;6.20;99.90;;;6.69;100.00;97736.94;5070591;28;20442;-77
2021/04/30 08:17:46;;;;;;;18.90;11.33;;;6.20;99.90;;;6.74;100.00;97729.41;5071150;28;20864;-77
2021/04/30 08:20:14;;;;;;;15.63;10.50;;;6.20;99.90;;;6.77;100.00;97723.91;5072675;28;20955;-78
2021/04/30 08:22:42;;;;;;;15.30;10.50;;;6.20;99.90;;;6.80;100.00;97724.38;5069418;28;20448;-78
2021/04/30 08:25:11;;;;;;;16.67;10.60;;;6.20;99.90;;;6.82;100.00;97721.59;5067159;28;20445;-79
2021/04/30 08:27:38;;;;;;;17.80;12.10;;;6.20;99.90;;;6.83;100.00;97716.22;5063425;28;20564;-78
2021/04/30 08:30:09;;;;;;;21.10;11.17;;;6.20;99.90;;;6.92;100.00;97727.38;5066745;28;20448;-79
2021/04/30 08:32:37;;;;;;;15.80;10.83;;;6.20;99.90;;;6.97;100.00;97722.47;5067775;28;20489;-79
2021/04/30 08:35:06;;;;;;;20.30;10.50;;;6.20;99.90;;;7.01;100.00;97716.75;5070371;28;20442;-78
2021/04/30 08:37:34;;;;;;;15.73;10.53;;;6.30;99.90;;;7.06;100.00;97719.66;5069595;28;20497;-79
2021/04/30 08:40:01;;;;;;;21.63;11.03;;;6.30;99.90;;;7.15;100.00;97717.00;5070729;28;20459;-79
2021/04/30 08:42:29;;;;;;;14.27;9.83;;;6.40;99.90;;;7.23;100.00;97727.31;5071461;28;20443;-79
2021/04/30 08:44:57;;;;;;;12.67;9.27;;;6.60;99.90;;;7.26;100.00;97730.38;5071548;28;20440;-79
2021/04/30 08:47:25;;;;;;;17.53;10.53;;;6.70;99.90;;;7.32;100.00;97732.31;5071487;28;20447;-79
2021/04/30 08:49:56;;;;;;;14.27;9.27;;;6.80;99.90;;;7.33;100.00;97733.09;5069452;28;20455;-79
2021/04/30 08:52:23;;;;;;;11.90;9.33;;;6.80;99.90;;;7.35;100.00;97733.75;5069547;28;20448;-79
2021/04/30 08:54:53;;;;;;;12.07;9.50;;;6.80;99.90;;;7.32;100.00;97734.91;5067248;28;20448;-79
2021/04/30 08:57:24;;;;;;;15.33;9.17;;;6.70;99.90;;;7.33;100.00;97731.31;5066597;28;20492;-80
2021/04/30 08:59:57;;;;;;;13.80;9.97;;;6.60;99.90;;;7.37;100.00;97726.56;5063503;28;20444;-79
2021/04/30 09:02:26;;;;;;;18.93;10.10;;;6.60;99.90;;;7.46;100.00;97733.34;5066295;28;20451;-79
2021/04/30 09:04:54;;;;;;;20.13;11.10;;;6.80;99.90;;;7.52;100.00;97730.84;5063177;28;20461;-78
2021/04/30 09:07:25;;;;;;;18.07;9.30;;;6.90;99.90;;;7.55;100.00;97733.09;5061456;28;20449;-79
2021/04/30 09:09:59;;;;;;;18.80;10.07;;;7.00;99.90;;;7.59;100.00;97731.75;5070987;28;20452;-78
2021/04/30 09:12:27;;;;;;;17.13;10.00;;;7.10;99.90;;;7.63;100.00;97727.00;5070004;28;20453;-79
2021/04/30 09:14:57;;;;;;;17.00;10.13;;;7.10;99.90;;;7.66;100.00;97725.84;5069617;28;20439;-79
2021/04/30 09:17:27;;;;;;;15.33;9.17;;;7.10;99.90;;;7.75;100.00;97712.56;5070127;28;20510;-79
2021/04/30 09:20:00;;;;;;;12.67;9.50;;;7.10;99.90;;;7.87;100.00;97712.97;5063149;28;20452;-78
2021/04/30 09:22:31;;;;;;;14.23;9.73;;;7.30;99.90;;;7.94;100.00;97713.88;5070883;28;20549;-79
2021/04/30 09:25:01;;;;;;;21.53;10.47;;;7.40;99.90;;;8.01;99.66;97710.38;5069934;28;20451;-78
2021/04/30 09:27:41;;;;;;;13.50;9.10;;;7.50;99.90;;;8.08;100.00;97713.88;5069653;28;20485;-79
2021/04/30 09:30:25;;;;;;;16.30;9.83;;;7.60;99.90;;;8.12;99.85;97709.13;5070477;28;20525;-79
2021/04/30 09:33:11;;;;;;;14.13;10.80;;;7.60;99.90;;;8.14;99.19;97709.75;5070002;28;20464;-79
2021/04/30 09:35:41;;;;;;;13.40;9.90;;;7.60;99.90;;;8.24;99.12;97712.88;5063315;28;20533;-78
2021/04/30 09:38:31;;;;;;;16.20;9.07;;;7.60;99.90;;;8.31;97.19;97692.97;5067109;28;20491;-79
2021/04/30 09:41:12;;;;;;;20.30;10.37;;;7.70;99.90;;;8.42;97.10;97694.31;5067554;28;20535;-78
2021/04/30 09:43:46;;;;;;;21.17;9.70;;;7.90;99.90;;;8.48;97.30;97686.56;5069703;28;20540;-79
2021/04/30 09:46:24;;;;;;;14.73;10.03;;;7.90;99.90;;;8.54;97.37;97685.00;5070718;28;20813;-79
2021/04/30 09:48:59;;;;;;;17.50;9.40;;;8.00;99.90;;;8.53;96.97;97681.63;5068019;28;20463;-79
2021/04/30 09:51:43;;;;;;;15.70;9.60;;;7.90;99.90;;;8.64;96.09;97689.94;5064949;28;20552;-79
2021/04/30 09:54:24;;;;;;;14.30;10.00;;;8.10;99.90;;;8.72;95.47;97689.81;5064020;28;20459;-79
2021/04/30 09:57:08;;;;;;;17.93;9.80;;;8.20;99.90;;;8.76;94.83;97684.06;5066183;28;20476;-78
2021/04/30 09:59:37;;;;;;;16.20;9.67;;;8.20;99.90;;;8.80;94.17;97674.91;5070142;28;20846;-79
2021/04/30 10:02:16;;;;;;;16.20;8.40;;;8.30;99.90;;;8.85;93.74;97682.94;5063800;28;20933;-79
2021/04/30 10:04:47;;;;;;;15.63;9.73;;;8.30;99.90;;;8.83;91.73;97679.72;5062424;28;20547;-78
2021/04/30 10:07:25;;;;;;;19.90;9.27;;;8.30;99.20;;;8.87;91.76;97675.78;5067288;28;20464;-79
2021/04/30 10:10:05;;;;;;;16.87;8.80;;;8.40;99.60;;;8.91;91.00;97681.41;5070676;28;20432;-79
2021/04/30 10:12:34;;;;;;;17.03;8.00;;;8.40;99.10;;;8.86;90.29;97681.16;5058740;28;20471;-79
2021/04/30 10:15:03;;;;;;;14.00;9.10;;;8.40;99.30;;;8.89;90.05;97691.22;5068728;28;20456;-79
2021/04/30 10:17:30;;;;;;;13.10;7.73;;;8.40;99.00;;;8.87;90.49;97694.03;5070507;28;20492;-79
2021/04/30 10:19:59;;;;;;;17.53;7.87;;;8.30;98.90;;;8.93;90.15;97693.28;5067945;28;20440;-78
2021/04/30 10:22:28;;;;;;;14.53;7.53;;;8.40;98.90;;;9.02;89.91;97696.59;5068599;28;20447;-79
2021/04/30 10:25:18;;;;;;;10.00;7.23;;;8.50;99.10;;;9.09;87.37;97687.03;5070068;28;20963;-79
2021/04/30 10:27:49;;;;;;;13.43;7.70;;;8.60;98.20;;;9.14;87.13;97682.03;5064381;28;20453;-79